createdAt,value
2022-09-01T00:00:56.821Z,7.40
2022-09-01T00:03:27.016Z,7.20
2022-09-01T00:05:56.926Z,7.20
2022-09-01T00:08:27.007Z,7.20
2022-09-01T00:10:56.805Z,7.20
2022-09-01T00:13:26.761Z,7.20
2022-09-01T00:18:26.885Z,7.20
2022-09-01T00:20:58.265Z,7.20
2022-09-01T00:23:27.411Z,8.00
2022-09-01T00:25:56.740Z,8.00
2022-09-01T00:30:57.800Z,8.00
2022-09-01T00:33:26.956Z,7.50
2022-09-01T00:35:56.895Z,7.50
2022-09-01T00:38:27.103Z,7.50
2022-09-01T00:40:57.052Z,7.50
2022-09-01T00:43:38.091Z,5.20
2022-09-01T00:45:57.081Z,5.20
2022-09-01T00:48:27.120Z,5.20
2022-09-01T00:50:57.050Z,5.20
2022-09-01T00:53:27.035Z,5.30
2022-09-01T00:55:56.970Z,5.30
2022-09-01T01:00:58.604Z,5.30
2022-09-01T01:06:00.917Z,7.20
2022-09-01T01:08:32.869Z,7.20
2022-09-01T01:10:56.692Z,7.20
2022-09-01T01:13:27.756Z,5.70
2022-09-01T01:15:58.571Z,5.70
2022-09-01T01:18:27.107Z,5.70
2022-09-01T01:21:11.639Z,5.70
2022-09-01T01:23:36.155Z,5.60
2022-09-01T01:25:59.073Z,5.60
2022-09-01T01:28:31.163Z,5.60
2022-09-01T01:31:00.612Z,5.60
2022-09-01T01:33:29.163Z,5.20
2022-09-01T01:35:58.956Z,5.20
2022-09-01T01:38:29.137Z,5.20
2022-09-01T01:40:56.880Z,5.20
2022-09-01T01:43:28.055Z,7.00
2022-09-01T01:46:01.437Z,7.00
2022-09-01T01:50:58.735Z,7.00
2022-09-01T01:53:27.908Z,6.20
2022-09-01T01:55:59.896Z,6.20
2022-09-01T01:58:27.988Z,6.20
2022-09-01T02:00:57.945Z,6.20
2022-09-01T02:03:35.376Z,5.70
2022-09-01T02:05:56.872Z,5.70
2022-09-01T02:08:26.775Z,5.70
2022-09-01T02:13:30.082Z,7.10
2022-09-01T02:16:00.452Z,7.10
2022-09-01T02:18:32.178Z,7.10
2022-09-01T02:20:57.927Z,7.10
2022-09-01T02:23:27.087Z,5.20
2022-09-01T02:26:15.693Z,5.20
2022-09-01T02:28:27.810Z,5.20
2022-09-01T02:30:58.816Z,5.20
2022-09-01T02:33:28.151Z,6.40
2022-09-01T02:35:59.384Z,6.40
2022-09-01T02:40:58.111Z,6.40
2022-09-01T02:43:28.830Z,5.90
2022-09-01T02:45:59.944Z,5.90
2022-09-01T02:50:58.427Z,5.90
2022-09-01T02:53:26.841Z,4.90
2022-09-01T02:55:58.493Z,4.90
2022-09-01T02:58:28.279Z,4.90
2022-09-01T03:00:57.083Z,4.90
2022-09-01T03:03:27.790Z,5.10
2022-09-01T03:05:57.018Z,5.10
2022-09-01T03:08:27.050Z,5.10
2022-09-01T03:11:00.489Z,5.10
2022-09-01T03:13:27.345Z,5.60
2022-09-01T03:15:56.951Z,5.60
2022-09-01T03:18:26.875Z,5.60
2022-09-01T03:20:56.861Z,5.60
2022-09-01T03:23:28.345Z,4.90
2022-09-01T03:28:28.885Z,4.90
2022-09-01T03:33:27.347Z,7.20
2022-09-01T03:35:56.941Z,7.20
2022-09-01T03:38:27.708Z,7.20
2022-09-01T03:41:01.014Z,7.20
2022-09-01T03:43:36.086Z,4.90
2022-09-01T03:45:59.494Z,4.90
2022-09-01T03:48:28.789Z,4.90
2022-09-01T03:51:01.677Z,4.90
2022-09-01T03:53:28.547Z,5.90
2022-09-01T03:55:57.970Z,5.90
2022-09-01T03:58:27.529Z,5.90
2022-09-01T04:03:31.050Z,5.10
2022-09-01T04:05:58.911Z,5.10
2022-09-01T04:08:32.408Z,5.10
2022-09-01T04:11:01.694Z,5.10
2022-09-01T04:13:30.974Z,5.40
2022-09-01T04:15:57.867Z,5.40
2022-09-01T04:18:27.011Z,5.40
2022-09-01T04:20:58.656Z,5.40
2022-09-01T04:23:29.395Z,5.20
2022-09-01T04:25:59.758Z,5.20
2022-09-01T04:28:34.791Z,5.20
2022-09-01T04:30:57.595Z,5.20
2022-09-01T04:33:35.941Z,5.80
2022-09-01T04:35:56.779Z,5.80
2022-09-01T04:38:28.854Z,5.80
2022-09-01T04:40:57.329Z,5.80
2022-09-01T04:43:26.836Z,5.60
2022-09-01T04:45:58.153Z,5.60
2022-09-01T04:48:27.471Z,5.60
2022-09-01T04:53:28.470Z,5.30
2022-09-01T04:56:03.505Z,5.30
2022-09-01T05:00:59.240Z,5.30
2022-09-01T05:03:30.925Z,5.00
2022-09-01T05:06:00.243Z,5.00
2022-09-01T05:08:27.946Z,5.00
2022-09-01T05:10:57.145Z,5.00
2022-09-01T05:16:02.876Z,7.70
2022-09-01T05:18:27.295Z,7.70
2022-09-01T05:20:57.279Z,7.70
2022-09-01T05:23:27.908Z,6.00
2022-09-01T05:25:56.830Z,6.00
2022-09-01T05:28:28.028Z,6.00
2022-09-01T05:30:59.962Z,6.00
2022-09-01T05:33:26.891Z,6.40
2022-09-01T05:35:59.044Z,6.40
2022-09-01T05:38:29.859Z,6.40
2022-09-01T05:41:01.062Z,6.40
2022-09-01T05:46:06.733Z,6.20
2022-09-01T05:48:30.539Z,6.20
2022-09-01T05:53:27.854Z,5.80
2022-09-01T05:55:57.525Z,5.80
2022-09-01T05:58:27.341Z,5.80
2022-09-01T06:00:58.378Z,5.80
2022-09-01T06:03:28.536Z,5.70
2022-09-01T06:06:01.871Z,5.70
2022-09-01T06:08:28.109Z,5.70
2022-09-01T06:13:27.542Z,6.80
2022-09-01T06:15:58.096Z,6.80
2022-09-01T06:18:26.913Z,6.80
2022-09-01T06:20:57.783Z,6.80
2022-09-01T06:23:26.906Z,6.30
2022-09-01T06:25:57.413Z,6.30
2022-09-01T06:28:28.598Z,6.30
2022-09-01T06:30:56.903Z,6.30
2022-09-01T06:33:26.866Z,5.70
2022-09-01T06:36:03.070Z,5.70
2022-09-01T06:38:26.922Z,5.70
2022-09-01T06:40:59.197Z,5.70
2022-09-01T06:43:29.501Z,5.50
2022-09-01T06:46:00.823Z,5.50
2022-09-01T06:48:29.845Z,5.50
2022-09-01T06:51:15.829Z,5.50
2022-09-01T06:53:45.517Z,6.20
2022-09-01T06:55:57.615Z,6.20
2022-09-01T06:58:30.113Z,6.20
2022-09-01T07:00:57.000Z,6.20
2022-09-01T07:03:27.277Z,5.90
2022-09-01T07:06:00.595Z,5.90
2022-09-01T07:08:27.754Z,5.90
2022-09-01T07:13:26.960Z,6.50
2022-09-01T07:21:36.179Z,6.50
2022-09-01T07:23:46.289Z,5.60
2022-09-01T07:26:02.739Z,5.60
2022-09-01T07:28:36.099Z,5.60
2022-09-01T07:30:58.266Z,5.60
2022-09-01T07:33:44.577Z,4.30
2022-09-01T07:36:26.784Z,4.30
2022-09-01T07:42:31.249Z,5.90
2022-09-01T07:42:55.723Z,4.30
2022-09-01T07:43:31.077Z,5.20
2022-09-01T07:45:59.039Z,5.20
2022-09-01T07:48:37.233Z,5.20
2022-09-01T07:53:30.434Z,6.20
2022-09-01T07:56:00.428Z,6.20
2022-09-01T07:58:28.827Z,6.20
2022-09-01T08:00:59.020Z,6.20
2022-09-01T08:03:28.331Z,5.90
2022-09-01T08:06:05.626Z,5.90
2022-09-01T08:08:29.303Z,5.90
2022-09-01T08:11:04.156Z,5.90
2022-09-01T08:13:27.450Z,5.00
2022-09-01T08:16:08.796Z,5.00
2022-09-01T08:18:27.128Z,5.00
2022-09-01T08:20:57.203Z,5.00
2022-09-01T08:23:27.064Z,5.10
2022-09-01T08:25:56.990Z,5.10
2022-09-01T08:28:27.318Z,5.10
2022-09-01T08:30:59.158Z,5.10
2022-09-01T08:33:28.434Z,6.00
2022-09-01T08:35:57.119Z,6.00
2022-09-01T08:38:27.197Z,6.00
2022-09-01T08:40:58.862Z,6.00
2022-09-01T08:43:44.812Z,6.90
2022-09-01T08:46:01.397Z,6.90
2022-09-01T08:49:23.581Z,6.90
2022-09-01T08:51:11.597Z,6.90
2022-09-01T08:53:32.701Z,4.50
2022-09-01T08:55:58.682Z,4.50
2022-09-01T08:58:29.844Z,4.50
2022-09-01T09:01:02.240Z,4.50
2022-09-01T09:03:41.091Z,4.80
2022-09-01T09:06:10.074Z,4.80
2022-09-01T09:08:43.870Z,4.80
2022-09-01T09:10:59.979Z,4.80
2022-09-01T09:13:41.645Z,4.50
2022-09-01T09:16:08.217Z,4.50
2022-09-01T09:18:39.408Z,4.50
2022-09-01T09:21:06.103Z,4.50
2022-09-01T09:23:33.366Z,5.60
2022-09-01T09:25:57.027Z,5.60
2022-09-01T09:28:27.108Z,5.60
2022-09-01T09:31:18.604Z,5.60
2022-09-01T09:33:51.348Z,4.20
2022-09-01T09:36:14.882Z,4.20
2022-09-01T09:38:28.015Z,4.20
2022-09-01T09:43:29.225Z,4.80
2022-09-01T09:48:29.650Z,4.80
2022-09-01T09:51:15.087Z,4.80
2022-09-01T09:53:31.566Z,4.50
2022-09-01T09:55:59.874Z,4.50
2022-09-01T09:58:35.442Z,4.50
2022-09-01T10:00:59.909Z,4.50
2022-09-01T10:03:37.106Z,4.70
2022-09-01T10:05:56.974Z,4.70
2022-09-01T10:08:38.786Z,4.70
2022-09-01T10:10:58.665Z,4.70
2022-09-01T10:13:28.532Z,5.30
2022-09-01T10:16:01.136Z,5.30
2022-09-01T10:18:32.085Z,5.30
2022-09-01T10:21:00.851Z,5.30
2022-09-01T10:23:31.361Z,3.40
2022-09-01T10:26:05.840Z,3.40
2022-09-01T10:28:31.097Z,3.40
2022-09-01T10:30:58.751Z,3.40
2022-09-01T10:35:57.700Z,4.30
2022-09-01T10:38:29.659Z,4.30
2022-09-01T10:41:09.394Z,4.30
2022-09-01T10:43:40.066Z,6.20
2022-09-01T10:46:05.192Z,6.20
2022-09-01T10:51:19.088Z,6.20
2022-09-01T10:53:37.632Z,4.60
2022-09-01T11:01:16.975Z,4.60
2022-09-01T11:03:52.398Z,4.40
2022-09-01T11:06:11.825Z,4.40
2022-09-01T11:08:42.374Z,4.40
2022-09-01T11:11:04.441Z,4.40
2022-09-01T11:13:35.490Z,3.80
2022-09-01T11:16:45.883Z,3.80
2022-09-01T11:18:30.250Z,3.80
2022-09-01T11:21:13.587Z,3.80
2022-09-01T11:23:29.566Z,3.30
2022-09-01T11:26:20.206Z,3.30
2022-09-01T11:28:38.948Z,3.30
2022-09-01T11:31:00.992Z,3.30
2022-09-01T11:33:36.994Z,3.90
2022-09-01T11:36:00.091Z,3.90
2022-09-01T11:38:31.114Z,3.90
2022-09-01T11:40:57.893Z,3.90
2022-09-01T11:43:29.737Z,7.60
2022-09-01T11:46:06.284Z,7.60
2022-09-01T11:48:27.466Z,7.60
2022-09-01T11:50:59.565Z,7.60
2022-09-01T11:53:27.713Z,3.20
2022-09-01T11:56:15.398Z,3.20
2022-09-01T11:58:33.611Z,3.20
2022-09-01T12:01:11.780Z,3.20
2022-09-01T12:03:29.476Z,3.90
2022-09-01T12:06:00.923Z,3.90
2022-09-01T12:08:30.872Z,3.90
2022-09-01T12:11:04.448Z,3.90
2022-09-01T12:13:28.175Z,4.20
2022-09-01T12:16:16.422Z,4.20
2022-09-01T12:18:30.455Z,4.20
2022-09-01T12:20:59.094Z,4.20
2022-09-01T12:23:29.822Z,5.10
2022-09-01T12:26:00.181Z,5.10
2022-09-01T12:28:30.608Z,5.10
2022-09-01T12:30:58.338Z,5.10
2022-09-01T12:33:27.906Z,4.00
2022-09-01T12:36:18.370Z,4.00
2022-09-01T12:38:29.848Z,4.00
2022-09-01T12:40:57.697Z,4.00
2022-09-01T12:43:30.877Z,3.00
2022-09-01T12:46:00.330Z,3.00
2022-09-01T12:48:29.922Z,3.00
2022-09-01T12:50:58.772Z,3.00
2022-09-01T12:53:31.204Z,3.10
2022-09-01T12:56:00.933Z,3.10
2022-09-01T12:58:29.159Z,3.10
2022-09-01T13:00:59.487Z,3.10
2022-09-01T13:03:28.727Z,3.80
2022-09-01T13:05:58.495Z,3.80
2022-09-01T13:08:30.085Z,3.80
2022-09-01T13:11:01.307Z,3.80
2022-09-01T13:13:28.361Z,4.90
2022-09-01T13:16:00.618Z,4.90
2022-09-01T13:18:27.832Z,4.90
2022-09-01T13:20:57.970Z,4.90
2022-09-01T13:23:27.488Z,3.70
2022-09-01T13:25:58.100Z,3.70
2022-09-01T13:28:27.167Z,3.70
2022-09-01T13:33:27.949Z,4.30
2022-09-01T13:35:58.038Z,4.30
2022-09-01T13:38:27.163Z,4.30
2022-09-01T13:40:59.436Z,4.30
2022-09-01T13:43:28.228Z,4.20
2022-09-01T13:45:57.291Z,4.20
2022-09-01T13:49:02.381Z,4.20
2022-09-01T13:51:18.461Z,4.20
2022-09-01T13:53:27.143Z,2.70
2022-09-01T13:58:27.242Z,2.70
2022-09-01T14:00:59.077Z,2.70
2022-09-01T14:03:27.573Z,3.70
2022-09-01T14:05:57.255Z,3.70
2022-09-01T14:08:27.388Z,3.70
2022-09-01T14:10:57.362Z,3.70
2022-09-01T14:13:27.796Z,3.40
2022-09-01T14:15:57.947Z,3.40
2022-09-01T14:18:31.828Z,3.40
2022-09-01T14:21:00.361Z,3.40
2022-09-01T14:23:27.166Z,3.00
2022-09-01T14:25:58.002Z,3.00
2022-09-01T14:28:27.193Z,3.00
2022-09-01T14:33:27.192Z,2.80
2022-09-01T14:35:57.401Z,2.80
2022-09-01T14:38:27.272Z,2.80
2022-09-01T14:40:57.687Z,2.80
2022-09-01T14:43:27.674Z,5.10
2022-09-01T14:46:05.529Z,5.10
2022-09-01T14:48:27.114Z,5.10
2022-09-01T14:50:58.111Z,5.10
2022-09-01T14:53:28.904Z,6.10
2022-09-01T14:55:58.075Z,6.10
2022-09-01T14:58:28.979Z,6.10
2022-09-01T15:01:11.876Z,6.10
2022-09-01T15:03:27.614Z,5.30
2022-09-01T15:05:57.226Z,5.30
2022-09-01T15:08:27.121Z,5.30
2022-09-01T15:11:00.382Z,5.30
2022-09-01T15:13:27.157Z,6.90
2022-09-01T15:15:57.577Z,6.90
2022-09-01T15:18:27.189Z,6.90
2022-09-01T15:20:57.360Z,6.90
2022-09-01T15:23:27.661Z,4.40
2022-09-01T15:25:57.349Z,4.40
2022-09-01T15:28:27.583Z,4.40
2022-09-01T15:30:58.904Z,4.40
2022-09-01T15:33:27.223Z,3.60
2022-09-01T15:35:57.243Z,3.60
2022-09-01T15:38:30.702Z,3.60
2022-09-01T15:40:58.995Z,3.60
2022-09-01T15:43:28.379Z,4.50
2022-09-01T15:45:59.519Z,4.50
2022-09-01T15:48:27.855Z,4.50
2022-09-01T15:51:17.343Z,4.50
2022-09-01T15:53:27.331Z,4.90
2022-09-01T15:55:58.720Z,4.90
2022-09-01T15:58:34.340Z,4.90
2022-09-01T16:00:58.342Z,4.90
2022-09-01T16:03:28.872Z,4.90
2022-09-01T16:05:59.265Z,4.90
2022-09-01T16:08:27.831Z,4.90
2022-09-01T16:10:58.215Z,4.90
2022-09-01T16:13:27.200Z,6.50
2022-09-01T16:16:13.656Z,6.50
2022-09-01T16:18:36.538Z,6.50
2022-09-01T16:21:04.705Z,6.50
2022-09-01T16:23:36.308Z,4.50
2022-09-01T16:25:59.232Z,4.50
2022-09-01T16:28:34.710Z,4.50
2022-09-01T16:31:02.274Z,4.50
2022-09-01T16:33:27.499Z,5.30
2022-09-01T16:36:06.991Z,5.30
2022-09-01T16:38:38.314Z,5.30
2022-09-01T16:41:03.207Z,5.30
2022-09-01T16:43:34.609Z,5.40
2022-09-01T16:46:07.042Z,5.40
2022-09-01T16:48:40.867Z,5.40
2022-09-01T16:51:10.066Z,5.40
2022-09-01T16:53:42.895Z,7.10
2022-09-01T16:56:01.108Z,7.10
2022-09-01T16:58:40.856Z,7.10
2022-09-01T17:01:10.613Z,7.10
2022-09-01T17:03:37.772Z,5.20
2022-09-01T17:06:05.561Z,5.20
2022-09-01T17:08:30.309Z,5.20
2022-09-01T17:11:04.770Z,5.20
2022-09-01T17:13:37.486Z,4.60
2022-09-01T17:16:06.839Z,4.60
2022-09-01T17:18:33.360Z,4.60
2022-09-01T17:21:01.936Z,4.60
2022-09-01T17:23:32.440Z,5.30
2022-09-01T17:26:02.138Z,5.30
2022-09-01T17:28:33.819Z,5.30
2022-09-01T17:31:05.938Z,5.30
2022-09-01T17:33:36.897Z,3.20
2022-09-01T17:36:08.311Z,3.20
2022-09-01T17:38:36.569Z,3.20
2022-09-01T17:41:11.033Z,3.20
2022-09-01T17:43:44.704Z,7.30
2022-09-01T17:46:04.697Z,7.30
2022-09-01T17:48:39.242Z,7.30
2022-09-01T17:51:04.591Z,7.30
2022-09-01T17:53:37.895Z,6.50
2022-09-01T17:56:02.641Z,6.50
2022-09-01T17:58:42.541Z,6.50
2022-09-01T18:01:03.861Z,6.50
2022-09-01T18:03:44.699Z,6.00
2022-09-01T18:06:03.535Z,6.00
2022-09-01T18:11:01.190Z,6.00
2022-09-01T18:13:52.275Z,3.90
2022-09-01T18:16:00.700Z,3.90
2022-09-01T18:18:33.169Z,3.90
2022-09-01T18:21:03.176Z,3.90
2022-09-01T18:23:31.054Z,5.80
2022-09-01T18:26:07.199Z,5.80
2022-09-01T18:28:27.328Z,5.80
2022-09-01T18:31:01.393Z,5.80
2022-09-01T18:33:32.212Z,6.70
2022-09-01T18:36:06.871Z,6.70
2022-09-01T18:38:37.844Z,6.70
2022-09-01T18:41:10.327Z,6.70
2022-09-01T18:43:33.945Z,5.20
2022-09-01T18:46:03.022Z,5.20
2022-09-01T18:48:44.047Z,5.20
2022-09-01T18:51:06.161Z,5.20
2022-09-01T18:53:39.204Z,4.40
2022-09-01T18:56:04.910Z,4.40
2022-09-01T18:58:44.517Z,4.40
2022-09-01T19:01:04.879Z,4.40
2022-09-01T19:03:31.539Z,6.80
2022-09-01T19:08:45.413Z,6.80
2022-09-01T19:11:07.286Z,6.80
2022-09-01T19:13:43.181Z,5.70
2022-09-01T19:16:08.104Z,5.70
2022-09-01T19:21:03.951Z,5.70
2022-09-01T19:23:39.554Z,5.30
2022-09-01T19:26:04.073Z,5.30
2022-09-01T19:28:38.707Z,5.30
2022-09-01T19:31:05.941Z,5.30
2022-09-01T19:33:34.702Z,4.50
2022-09-01T19:36:02.553Z,4.50
2022-09-01T19:38:27.980Z,4.50
2022-09-01T19:41:02.656Z,4.50
2022-09-01T19:43:35.487Z,7.50
2022-09-01T19:46:10.103Z,7.50
2022-09-01T19:48:34.303Z,7.50
2022-09-01T19:51:02.398Z,7.50
2022-09-01T19:53:37.689Z,4.50
2022-09-01T19:56:06.160Z,4.50
2022-09-01T19:58:41.291Z,4.50
2022-09-01T20:01:01.113Z,4.50
2022-09-01T20:03:34.350Z,4.70
2022-09-01T20:08:33.774Z,4.70
2022-09-01T20:11:02.296Z,4.70
2022-09-01T20:13:39.479Z,7.20
2022-09-01T20:16:06.733Z,7.20
2022-09-01T20:18:31.454Z,7.20
2022-09-01T20:21:01.504Z,7.20
2022-09-01T20:23:35.642Z,6.80
2022-09-01T20:26:02.984Z,6.80
2022-09-01T20:28:34.381Z,6.80
2022-09-01T20:31:02.575Z,6.80
2022-09-01T20:33:35.624Z,5.70
2022-09-01T20:36:04.189Z,5.70
2022-09-01T20:38:45.886Z,5.70
2022-09-01T20:41:01.677Z,5.70
2022-09-01T20:43:34.857Z,4.40
2022-09-01T20:45:57.505Z,4.40
2022-09-01T20:48:29.523Z,4.40
2022-09-01T20:51:06.718Z,4.40
2022-09-01T20:53:47.153Z,5.20
2022-09-01T20:56:05.838Z,5.20
2022-09-01T20:58:33.104Z,5.20
2022-09-01T21:01:07.042Z,5.20
2022-09-01T21:03:36.848Z,5.50
2022-09-01T21:06:07.771Z,5.50
2022-09-01T21:08:41.319Z,5.50
2022-09-01T21:11:02.322Z,5.50
2022-09-01T21:13:45.165Z,5.40
2022-09-01T21:16:08.455Z,5.40
2022-09-01T21:18:41.572Z,5.40
2022-09-01T21:21:06.542Z,5.40
2022-09-01T21:23:27.629Z,5.40
2022-09-01T21:25:58.297Z,5.40
2022-09-01T21:28:28.405Z,5.40
2022-09-01T21:30:58.945Z,5.40
2022-09-01T21:33:29.816Z,6.50
2022-09-01T21:35:58.506Z,6.50
2022-09-01T21:38:28.559Z,6.50
2022-09-01T21:40:59.062Z,6.50
2022-09-01T21:43:31.734Z,6.40
2022-09-01T21:45:57.771Z,6.40
2022-09-01T21:48:28.993Z,6.40
2022-09-01T21:53:27.466Z,4.80
2022-09-01T21:55:58.299Z,4.80
2022-09-01T21:58:27.542Z,4.80
2022-09-01T22:05:57.672Z,7.20
2022-09-01T22:08:27.476Z,7.20
2022-09-01T22:10:57.354Z,7.20
2022-09-01T22:13:27.303Z,5.70
2022-09-01T22:18:27.628Z,5.70
2022-09-01T22:21:01.942Z,5.70
2022-09-01T22:23:27.394Z,6.10
2022-09-01T22:25:57.839Z,6.10
2022-09-01T22:28:27.864Z,6.10
2022-09-01T22:30:57.759Z,6.10
2022-09-01T22:33:28.158Z,5.00
2022-09-01T22:38:27.313Z,5.00
2022-09-01T22:40:58.945Z,5.00
2022-09-01T22:43:29.186Z,6.30
2022-09-01T22:45:58.479Z,6.30
2022-09-01T22:48:28.168Z,6.30
2022-09-01T22:50:57.671Z,6.30
2022-09-01T22:53:27.520Z,6.10
2022-09-01T22:58:27.997Z,6.10
2022-09-01T23:00:59.402Z,6.10
2022-09-01T23:03:27.843Z,5.90
2022-09-01T23:06:03.012Z,5.90
2022-09-01T23:08:27.344Z,5.90
2022-09-01T23:10:57.541Z,5.90
2022-09-01T23:13:27.647Z,6.00
2022-09-01T23:15:59.184Z,6.00
2022-09-01T23:18:31.033Z,6.00
2022-09-01T23:20:58.885Z,6.00
2022-09-01T23:23:28.237Z,5.80
2022-09-01T23:25:59.722Z,5.80
2022-09-01T23:28:27.835Z,5.80
2022-09-01T23:33:29.251Z,4.90
2022-09-01T23:35:58.094Z,4.90
2022-09-01T23:38:27.988Z,4.90
2022-09-01T23:40:57.696Z,4.90
2022-09-01T23:43:27.323Z,4.60
2022-09-01T23:48:28.365Z,4.60
2022-09-01T23:53:30.638Z,6.40
2022-09-01T23:56:01.763Z,6.40
2022-09-01T23:58:29.077Z,6.40
